Time;durP1;ratioP1;P1;durP2;ratioP2;P2;SDS_P1;SDS_P2;PMS_P1;PMS_P2;Temp;Humidity;BMP_temperature;BMP_pressure;BME280_temperature;BME280_humidity;BME280_pressure;Samples;Min_cycle;Max_cycle;Signal;HPM_P1;HPM_P2
2022/09/03 00:00:51;;;;;;;;;10.20;10.20;;;;;24.13;51.63;100332.13;2061464;28;47110;-60
2022/09/03 00:01:58;;;;;;;;;10.00;9.40;;;;;24.13;52.22;100334.84;2070013;28;47247;-59
2022/09/03 00:03:12;;;;;;;;;10.60;10.20;;;;;24.12;52.26;100337.69;2066809;28;47528;-60
2022/09/03 00:04:24;;;;;;;;;10.60;10.60;;;;;24.11;52.08;100336.84;2062731;28;47948;-60
2022/09/03 00:05:42;;;;;;;;;9.60;9.40;;;;;24.08;52.07;100342.53;2060504;28;47879;-60
2022/09/03 00:06:51;;;;;;;;;12.80;11.80;;;;;24.07;52.25;100338.09;2051196;28;47305;-60
2022/09/03 00:08:10;;;;;;;;;12.00;12.00;;;;;24.05;52.41;100329.22;2055937;28;47744;-60
2022/09/03 00:09:23;;;;;;;;;14.40;11.40;;;;;24.04;52.46;100322.94;2062736;28;46813;-60
2022/09/03 00:10:30;;;;;;;;;14.40;12.80;;;;;24.05;52.21;100331.94;2060846;28;47844;-60
2022/09/03 00:11:39;;;;;;;;;11.80;11.80;;;;;24.05;52.41;100326.53;2059494;28;47966;-60
2022/09/03 00:12:43;;;;;;;;;12.40;12.00;;;;;24.05;52.60;100329.22;2062614;28;47600;-60
2022/09/03 00:13:50;;;;;;;;;9.60;9.60;;;;;24.04;52.43;100331.09;2062789;28;47628;-60
2022/09/03 00:15:05;;;;;;;;;6.40;6.00;;;;;24.03;52.38;100337.50;2061398;28;47767;-60
2022/09/03 00:16:11;;;;;;;;;11.20;11.20;;;;;24.02;52.37;100334.91;2062624;28;47812;-59
2022/09/03 00:17:18;;;;;;;;;10.00;10.00;;;;;24.01;52.64;100328.63;2062586;28;47786;-60
2022/09/03 00:18:24;;;;;;;;;9.80;9.80;;;;;24.01;52.76;100330.47;2061391;28;47823;-60
2022/09/03 00:19:30;;;;;;;;;10.00;10.00;;;;;24.00;52.97;100326.03;2060219;28;47680;-61
2022/09/03 00:20:37;;;;;;;;;10.20;10.20;;;;;24.00;53.09;100326.03;2062645;28;47946;-61
2022/09/03 00:21:46;;;;;;;;;9.20;9.20;;;;;23.97;52.82;100326.28;2062338;28;47711;-60
2022/09/03 00:22:55;;;;;;;;;9.00;9.00;;;;;23.96;52.85;100324.56;2061228;28;47980;-60
2022/09/03 00:24:00;;;;;;;;;8.20;8.20;;;;;23.95;52.92;100325.56;2062468;28;47700;-60
2022/09/03 00:25:04;;;;;;;;;10.20;10.20;;;;;23.94;53.14;100321.13;2061522;28;47418;-60
2022/09/03 00:26:11;;;;;;;;;12.00;9.40;;;;;23.94;53.31;100323.84;2092525;27;47510;-60
2022/09/03 00:27:21;;;;;;;;;10.60;9.80;;;;;23.93;53.30;100324.84;2101232;28;47824;-60
2022/09/03 00:28:44;;;;;;;;;12.60;10.60;;;;;23.93;53.04;100325.69;2095948;28;46779;-59
2022/09/03 00:29:51;;;;;;;;;8.20;8.20;;;;;23.92;53.09;100332.09;2097137;28;47750;-58
2022/09/03 00:31:06;;;;;;;;;11.20;11.00;;;;;23.93;53.23;100325.69;2099944;28;47797;-60
2022/09/03 00:32:13;;;;;;;;;8.20;8.20;;;;;23.93;53.23;100328.41;2104565;28;48085;-59
2022/09/03 00:33:20;;;;;;;;;15.80;15.80;;;;;23.93;53.11;100324.84;2100238;28;47964;-59
2022/09/03 00:34:30;;;;;;;;;11.20;11.20;;;;;23.93;53.51;100324.84;2105145;28;47672;-60
2022/09/03 00:35:46;;;;;;;;;14.00;12.60;;;;;23.94;53.09;100321.13;2103328;28;47515;-60
2022/09/03 00:36:46;;;;;;;;;9.20;9.20;;;;;23.93;53.26;100325.69;2105390;28;46859;-60
2022/09/03 00:37:47;;;;;;;;;10.25;9.25;;;;;23.94;53.12;100324.72;2104818;28;47468;-61
2022/09/03 00:38:48;;;;;;;;;10.40;10.40;;;;;23.94;53.23;100331.97;2103039;28;47475;-61
2022/09/03 00:39:48;;;;;;;;;11.50;11.50;;;;;23.94;53.30;100323.84;2104620;28;47327;-61
2022/09/03 00:41:07;;;;;;;;;15.50;14.00;;;;;23.93;53.31;100323.00;2104754;27;47359;-61
2022/09/03 00:42:28;;;;;;;;;12.00;12.00;;;;;23.93;53.50;100316.72;2102518;28;47681;-60
2022/09/03 00:43:50;;;;;;;;;10.40;10.20;;;;;23.92;53.19;100320.41;2096281;28;47455;-60
2022/09/03 00:45:02;;;;;;;;;8.80;8.80;;;;;23.94;53.23;100315.72;2096186;28;48102;-61
2022/09/03 00:46:21;;;;;;;;;7.80;7.80;;;;;23.93;53.40;100320.28;2085612;28;47384;-60
2022/09/03 00:47:51;;;;;;;;;10.00;10.00;;;;;23.93;53.52;100319.41;2089076;28;47513;-61
2022/09/03 00:49:06;;;;;;;;;8.75;8.75;;;;;23.92;53.42;100320.41;2101739;28;47800;-60
2022/09/03 00:50:10;;;;;;;;;9.80;9.80;;;;;23.91;53.61;100315.97;2101360;28;48080;-59
2022/09/03 00:51:28;;;;;;;;;9.80;9.80;;;;;23.90;53.34;100322.38;2099515;28;47750;-60
2022/09/03 00:52:39;;;;;;;;;6.00;6.00;;;;;23.89;53.70;100320.66;2103300;28;47544;-61
2022/09/03 00:53:50;;;;;;;;;10.40;10.40;;;;;23.88;53.48;100321.63;2099502;28;48135;-59
2022/09/03 00:55:05;;;;;;;;;8.80;8.80;;;;;23.87;53.73;100319.91;2104783;28;47655;-61
2022/09/03 00:56:17;;;;;;;;;9.00;9.00;;;;;23.87;53.62;100323.47;2105110;27;47641;-60
2022/09/03 00:57:17;;;;;;;;;9.80;9.20;;;;;23.87;53.40;100323.47;2100535;28;46542;-60
2022/09/03 00:58:38;;;;;;;;;9.75;8.00;;;;;23.88;53.67;100321.63;2096614;28;47408;-60
2022/09/03 01:00:08;;;;;;;;;8.40;8.40;;;;;23.89;53.56;100323.38;2095908;28;47659;-60
2022/09/03 01:01:27;;;;;;;;;9.80;8.40;;;;;23.88;53.60;100318.91;2101157;28;47618;-60
2022/09/03 01:02:40;;;;;;;;;7.00;7.00;;;;;23.89;53.55;100320.66;2104642;28;47771;-58
2022/09/03 01:03:53;;;;;;;;;10.20;10.20;;;;;23.88;53.61;100329.75;2103591;28;47315;-60
2022/09/03 01:05:12;;;;;;;;;10.20;8.60;;;;;23.87;53.96;100328.91;2103551;27;47965;-61
2022/09/03 01:06:38;;;;;;;;;9.80;8.60;;;;;23.87;53.77;100325.34;2113039;27;47963;-59
2022/09/03 01:07:54;;;;;;;;;8.60;8.60;;;;;23.86;53.57;100326.31;2077863;28;47723;-61
2022/09/03 01:09:22;;;;;;;;;9.00;9.00;;;;;23.83;53.56;100327.44;2077078;28;47660;-61
2022/09/03 01:10:30;;;;;;;;;7.60;7.20;;;;;23.81;53.54;100329.44;2075883;28;47666;-60
2022/09/03 01:11:50;;;;;;;;;9.20;8.00;;;;;23.81;53.62;100326.72;2078678;28;47345;-60
2022/09/03 01:13:07;;;;;;;;;9.60;7.80;;;;;23.81;53.58;100329.44;2077227;28;47855;-60
2022/09/03 01:14:38;;;;;;;;;8.20;8.20;;;;;23.81;53.73;100328.56;2070350;28;47494;-59
2022/09/03 01:16:03;;;;;;;;;9.20;9.20;;;;;23.78;53.56;100327.84;2070536;28;47531;-60
2022/09/03 01:17:35;;;;;;;;;9.60;9.60;;;;;23.76;53.56;100329.81;2077299;28;47338;-61
2022/09/03 01:19:02;;;;;;;;;8.00;7.60;;;;;23.75;53.81;100332.63;2073404;28;48039;-60
2022/09/03 01:20:21;;;;;;;;;8.80;8.40;;;;;23.74;53.46;100329.06;2075333;28;47493;-60
2022/09/03 01:21:30;;;;;;;;;9.40;9.20;;;;;23.74;53.74;100336.31;2078839;28;47452;-61
2022/09/03 01:22:46;;;;;;;;;7.20;7.20;;;;;23.72;53.76;100335.59;2077639;28;47958;-60
2022/09/03 01:23:46;;;;;;;;;7.80;7.80;;;;;23.71;53.61;100334.75;2078678;28;47847;-60
2022/09/03 01:25:14;;;;;;;;;7.33;7.00;;;;;23.70;53.95;100335.72;2077515;28;47629;-60
2022/09/03 01:26:23;;;;;;;;;6.80;5.80;;;;;23.70;53.69;100329.44;2072030;28;47789;-61
2022/09/03 01:27:45;;;;;;;;;10.40;8.80;;;;;23.68;53.98;100334.13;2078480;28;47674;-61
2022/09/03 01:29:10;;;;;;;;;8.60;8.60;;;;;23.68;53.58;100334.13;2078553;28;47564;-61
2022/09/03 01:30:17;;;;;;;;;8.80;8.80;;;;;23.68;53.41;100337.72;2078693;28;47729;-61
2022/09/03 01:31:51;;;;;;;;;8.60;7.20;;;;;23.68;53.41;100339.56;2077268;28;47486;-60
2022/09/03 01:33:08;;;;;;;;;6.80;6.80;;;;;23.67;53.52;100333.28;2070224;28;47566;-60
2022/09/03 01:34:46;;;;;;;;;6.00;6.00;;;;;23.65;53.46;100337.97;2070292;28;47725;-60
2022/09/03 01:35:56;;;;;;;;;7.40;6.40;;;;;23.64;53.93;100336.25;2051962;28;47759;-59
2022/09/03 01:37:08;;;;;;;;;6.40;6.40;;;;;23.64;53.68;100338.09;2053798;28;47890;-60
2022/09/03 01:38:49;;;;;;;;;5.00;5.00;;;;;23.62;53.43;100330.06;2054013;28;47632;-61
2022/09/03 01:40:12;;;;;;;;;9.80;7.40;;;;;23.60;53.62;100328.47;2046823;28;48145;-60
2022/09/03 01:43:50;;;;;;;;;6.20;6.00;;;;;23.58;53.62;100328.59;2053210;28;47910;-60
2022/09/03 01:45:06;;;;;;;;;6.60;6.60;;;;;23.58;53.85;100330.47;2040119;28;48230;-60
2022/09/03 01:46:13;;;;;;;;;6.60;6.60;;;;;23.57;53.80;100329.56;2059491;28;47853;-60
2022/09/03 01:47:31;;;;;;;;;8.00;8.00;;;;;23.57;53.95;100331.41;2061239;28;48050;-60
2022/09/03 01:48:42;;;;;;;;;5.80;5.80;;;;;23.56;53.87;100327.84;2059619;28;47561;-60
2022/09/03 01:50:05;;;;;;;;;7.80;6.40;;;;;23.58;54.12;100328.59;2062044;28;47337;-61
2022/09/03 01:51:18;;;;;;;;;8.00;8.00;;;;;23.58;53.84;100328.59;2059765;28;47644;-61
2022/09/03 01:52:34;;;;;;;;;7.40;6.20;;;;;23.57;53.85;100328.72;2059589;28;47885;-60
2022/09/03 01:53:44;;;;;;;;;5.60;5.60;;;;;23.56;54.07;100326.97;2064446;28;47838;-60
2022/09/03 01:55:00;;;;;;;;;7.00;7.00;;;;;23.57;54.05;100337.69;2070395;28;47953;-60
2022/09/03 01:56:18;;;;;;;;;6.00;6.00;;;;;23.56;53.95;100327.84;2055181;28;47705;-61
2022/09/03 01:57:44;;;;;;;;;7.00;5.00;;;;;23.56;53.94;100326.97;2062148;28;47687;-60
2022/09/03 01:59:06;;;;;;;;;5.60;5.60;;;;;23.54;54.22;100327.13;2059633;28;47377;-60
2022/09/03 02:00:18;;;;;;;;;5.20;5.20;;;;;23.54;54.16;100328.97;2057588;28;47719;-60
2022/09/03 02:01:28;;;;;;;;;10.20;9.20;;;;;23.53;54.05;100328.09;2062175;28;47460;-60
2022/09/03 02:02:29;;;;;;;;;5.40;5.40;;;;;23.52;54.26;100325.53;2057376;28;47218;-60
2022/09/03 02:03:37;;;;;;;;;6.20;6.20;;;;;23.52;54.18;100328.22;2062043;28;47520;-59
2022/09/03 02:04:38;;;;;;;;;6.00;6.00;;;;;23.51;54.20;100330.09;2061086;28;47393;-60
2022/09/03 02:05:38;;;;;;;;;7.00;7.00;;;;;23.51;54.29;100326.50;2058957;28;47449;-60
2022/09/03 02:06:39;;;;;;;;;4.75;4.75;;;;;23.48;54.79;100325.75;2061369;28;47607;-61
2022/09/03 02:07:43;;;;;;;;;5.50;5.50;;;;;23.48;54.29;100324.91;2060247;28;47267;-59
2022/09/03 02:08:43;;;;;;;;;6.00;6.00;;;;;23.48;54.48;100317.63;2061866;28;47619;-61
2022/09/03 02:09:44;;;;;;;;;6.00;6.00;;;;;23.47;54.57;100318.63;2061627;28;47558;-61
2022/09/03 02:10:54;;;;;;;;;6.50;6.50;;;;;23.48;54.62;100320.34;2052586;28;47414;-60
2022/09/03 02:12:09;;;;;;;;;5.80;5.80;;;;;23.50;54.69;100317.50;2060263;28;47792;-61
2022/09/03 02:13:25;;;;;;;;;5.80;5.80;;;;;23.49;54.49;100318.50;2064616;28;47326;-61
2022/09/03 02:14:28;;;;;;;;;5.80;5.80;;;;;23.48;54.75;100325.75;2078411;28;47432;-61
2022/09/03 02:15:31;;;;;;;;;5.20;5.20;;;;;23.46;54.80;100324.16;2078498;28;47902;-61
2022/09/03 02:16:34;;;;;;;;;6.20;6.20;;;;;23.45;54.88;100323.31;2076817;28;47706;-60
2022/09/03 02:17:35;;;;;;;;;6.00;6.00;;;;;23.43;54.88;100325.28;2073984;28;47651;-61
2022/09/03 02:18:41;;;;;;;;;6.20;6.20;;;;;23.42;55.18;100320.00;2077444;28;47243;-61
2022/09/03 02:19:42;;;;;;;;;6.20;6.20;;;;;23.40;55.12;100320.13;2077723;28;47598;-61
2022/09/03 02:20:43;;;;;;;;;7.25;5.50;;;;;23.39;54.95;100323.81;2078418;28;47408;-61
2022/09/03 02:21:52;;;;;;;;;9.00;7.40;;;;;23.38;54.96;100324.81;2090583;27;47521;-61
2022/09/03 02:22:53;;;;;;;;;6.00;6.00;;;;;23.38;55.21;100330.22;2106751;27;46869;-61
2022/09/03 02:23:53;;;;;;;;;7.25;7.25;;;;;23.37;55.16;100328.47;2104319;28;47482;-61
2022/09/03 02:24:54;;;;;;;;;8.00;8.00;;;;;23.36;55.04;100325.88;2103199;28;47587;-62
2022/09/03 02:25:56;;;;;;;;;7.00;7.00;;;;;23.34;55.43;100328.72;2103395;28;46282;-61
2022/09/03 02:26:57;;;;;;;;;6.20;6.20;;;;;23.32;55.37;100322.56;2086246;28;47703;-61
2022/09/03 02:27:59;;;;;;;;;6.00;6.00;;;;;23.32;55.71;100328.00;2080474;28;47996;-61
2022/09/03 02:29:01;;;;;;;;;6.60;6.60;;;;;23.31;55.74;100318.16;2104171;27;47597;-60
2022/09/03 02:30:01;;;;;;;;;6.60;6.60;;;;;23.30;55.68;100323.69;2105210;28;46523;-61
2022/09/03 02:31:03;;;;;;;;;7.00;7.00;;;;;23.30;55.64;100323.69;2095902;28;47590;-60
2022/09/03 02:32:03;;;;;;;;;6.00;6.00;;;;;23.29;55.60;100321.97;2096880;28;47242;-59
2022/09/03 02:33:04;;;;;;;;;7.00;7.00;;;;;23.30;55.62;100329.97;2097502;28;48003;-60
2022/09/03 02:34:04;;;;;;;;;6.00;6.00;;;;;23.29;55.86;100322.84;2100635;28;47458;-61
2022/09/03 02:35:05;;;;;;;;;8.00;8.00;;;;;23.28;55.62;100321.13;2104480;28;47603;-59
2022/09/03 02:36:10;;;;;;;;;7.60;7.60;;;;;23.27;55.46;100324.81;2105654;28;47594;-60
2022/09/03 02:37:16;;;;;;;;;5.80;5.40;;;;;23.28;55.79;100328.38;2103623;28;47878;-61
2022/09/03 02:38:27;;;;;;;;;8.80;8.80;;;;;23.27;56.03;100330.22;2096807;28;47250;-59
2022/09/03 02:39:27;;;;;;;;;8.80;6.80;;;;;23.26;56.18;100328.50;2100091;28;47770;-60
2022/09/03 02:40:28;;;;;;;;;6.75;6.75;;;;;23.24;56.28;100327.75;2099952;27;47493;-60
2022/09/03 02:41:28;;;;;;;;;8.25;6.75;;;;;23.24;56.22;100329.59;2105575;28;47281;-60
2022/09/03 02:42:28;;;;;;;;;6.50;6.50;;;;;23.23;56.30;100330.56;2104459;28;47208;-60
2022/09/03 02:43:44;;;;;;;;;7.75;7.75;;;;;23.20;56.29;100332.56;2096336;28;47325;-60
2022/09/03 02:45:00;;;;;;;;;7.20;6.60;;;;;23.17;56.38;100332.81;2099340;28;47591;-60
2022/09/03 02:46:04;;;;;;;;;7.00;7.00;;;;;23.16;56.71;100336.50;2096484;28;46150;-59
2022/09/03 02:47:06;;;;;;;;;8.00;8.00;;;;;23.15;56.69;100336.63;2090869;28;48016;-60
2022/09/03 02:48:10;;;;;;;;;11.00;7.80;;;;;23.12;57.12;100337.75;2097682;28;47377;-61
2022/09/03 02:49:10;;;;;;;;;7.40;7.40;;;;;23.10;57.19;100334.25;2100846;28;47433;-61
2022/09/03 02:50:11;;;;;;;;;7.50;7.00;;;;;23.10;56.87;100334.25;2097542;28;47593;-60
2022/09/03 02:51:12;;;;;;;;;6.75;5.75;;;;;23.10;57.15;100333.41;2103840;27;46913;-61
2022/09/03 02:52:12;;;;;;;;;8.00;8.00;;;;;23.09;57.18;100337.97;2100745;28;48030;-61
2022/09/03 02:53:13;;;;;;;;;8.75;8.00;;;;;;;;2103458;28;47369;-61
2022/09/03 02:54:13;;;;;;;;;7.00;6.25;;;;;23.07;57.20;100333.66;2091340;28;46499;-61
2022/09/03 02:55:14;;;;;;;;;7.75;7.00;;;;;23.06;57.42;100335.50;2088180;28;47656;-61
2022/09/03 02:56:14;;;;;;;;;7.00;7.00;;;;;23.05;57.79;100330.22;2097068;28;48007;-58
2022/09/03 02:57:16;;;;;;;;;9.50;9.50;;;;;23.02;57.72;100331.31;2101210;28;48136;-59
2022/09/03 02:58:16;;;;;;;;;9.20;8.00;;;;;23.01;57.78;100326.03;2097158;28;47587;-60
2022/09/03 02:59:16;;;;;;;;;9.00;9.00;;;;;23.01;58.16;100331.47;2104402;27;47638;-61
2022/09/03 03:00:17;;;;;;;;;11.75;10.50;;;;;23.01;57.74;100328.75;2105950;28;47234;-60
2022/09/03 03:01:17;;;;;;;;;7.25;7.25;;;;;23.01;57.87;100334.16;2101488;28;47675;-59
2022/09/03 03:02:18;;;;;;;;;8.00;8.00;;;;;22.99;58.32;100327.97;2101331;28;47690;-60
2022/09/03 03:03:19;;;;;;;;;9.25;9.25;;;;;22.98;58.00;100328.97;2098035;28;47382;-61
2022/09/03 03:04:20;;;;;;;;;9.80;9.40;;;;;22.98;58.00;100331.69;2104341;28;47390;-60
2022/09/03 03:05:26;;;;;;;;;7.80;7.80;;;;;22.96;57.94;100333.66;2103458;28;47724;-60
2022/09/03 03:06:26;;;;;;;;;9.00;9.00;;;;;22.95;58.28;100329.22;2105819;28;47509;-59
2022/09/03 03:07:32;;;;;;;;;9.75;9.75;;;;;22.94;58.30;100331.06;2105312;28;47441;-60
2022/09/03 03:08:33;;;;;;;;;7.80;7.80;;;;;22.93;58.19;100329.34;2104226;28;47413;-61
2022/09/03 03:09:34;;;;;;;;;10.00;10.00;;;;;22.93;58.43;100325.78;2104710;28;47915;-61
2022/09/03 03:10:34;;;;;;;;;8.00;8.00;;;;;22.92;58.57;100330.34;2104318;28;47844;-60
2022/09/03 03:11:35;;;;;;;;;10.25;10.25;;;;;22.92;58.44;100324.91;2104930;28;47454;-60
2022/09/03 03:12:36;;;;;;;;;8.80;8.80;;;;;22.92;58.72;100330.34;2105903;28;47833;-59
2022/09/03 03:13:37;;;;;;;;;9.25;9.25;;;;;22.92;58.21;100324.91;2096422;28;47456;-60
2022/09/03 03:14:37;;;;;;;;;11.00;11.00;;;;;22.92;58.52;100326.75;2095442;28;47707;-59
2022/09/03 03:15:38;;;;;;;;;8.00;8.00;;;;;22.92;58.54;100324.06;2102113;28;47532;-60
2022/09/03 03:16:38;;;;;;;;;11.75;11.75;;;;;22.91;58.58;100328.59;2105495;28;47001;-60
2022/09/03 03:17:38;;;;;;;;;8.25;8.00;;;;;22.91;58.45;100331.31;2105212;28;47661;-59
2022/09/03 03:18:39;;;;;;;;;12.75;11.25;;;;;22.91;58.83;100331.31;2101378;28;47113;-59
2022/09/03 03:19:39;;;;;;;;;10.75;10.75;;;;;22.90;58.89;100340.41;2100563;28;47638;-60
2022/09/03 03:20:40;;;;;;;;;13.25;11.50;;;;;22.89;58.69;100331.44;2105460;28;47595;-60
2022/09/03 03:21:41;;;;;;;;;12.00;11.40;;;;;22.88;58.82;100329.72;2105037;28;47681;-60
2022/09/03 03:22:41;;;;;;;;;10.00;10.00;;;;;22.88;59.01;100327.00;2104076;28;47956;-60
2022/09/03 03:23:43;;;;;;;;;12.00;11.75;;;;;22.88;58.57;100331.56;2100327;28;47168;-59
2022/09/03 03:24:43;;;;;;;;;10.20;10.20;;;;;22.88;58.93;100331.56;2097806;28;47957;-59
2022/09/03 03:25:44;;;;;;;;;11.00;11.00;;;;;22.88;58.83;100326.16;2095427;28;47494;-61
2022/09/03 03:26:44;;;;;;;;;14.50;13.50;;;;;22.88;59.28;100334.28;2095165;28;48085;-58
2022/09/03 03:27:45;;;;;;;;;11.50;11.00;;;;;22.86;58.84;100326.25;2097121;28;47801;-61
2022/09/03 03:28:47;;;;;;;;;12.00;12.00;;;;;22.86;58.97;100326.25;2103214;28;47560;-61
2022/09/03 03:29:49;;;;;;;;;12.60;10.60;;;;;22.87;59.01;100329.84;2105353;28;47744;-60
2022/09/03 03:30:51;;;;;;;;;12.60;12.60;;;;;22.86;59.51;100334.38;2104745;28;47415;-60
2022/09/03 03:31:51;;;;;;;;;12.80;12.40;;;;;22.85;59.37;100329.94;2103316;28;48066;-60
2022/09/03 03:32:53;;;;;;;;;12.50;12.50;;;;;22.84;59.42;100330.94;2102733;28;47331;-60
2022/09/03 03:33:56;;;;;;;;;14.60;14.20;;;;;22.83;58.98;100320.22;2105398;28;47705;-60
2022/09/03 03:34:56;;;;;;;;;10.60;10.60;;;;;22.83;59.79;100329.19;2104133;28;47577;-60
2022/09/03 03:35:57;;;;;;;;;14.25;13.25;;;;;22.83;59.78;100326.50;2105130;28;46878;-60
2022/09/03 03:36:58;;;;;;;;;11.50;11.50;;;;;22.83;59.41;100325.63;2104236;28;47965;-59
2022/09/03 03:37:59;;;;;;;;;11.60;11.60;;;;;22.82;59.11;100326.59;2105656;28;46001;-60
2022/09/03 03:39:00;;;;;;;;;14.00;11.75;;;;;22.82;59.36;100315.75;2103638;27;47400;-61
2022/09/03 03:40:01;;;;;;;;;14.00;14.00;;;;;22.82;59.68;100326.59;2076737;28;45746;-59
2022/09/03 03:41:14;;;;;;;;;13.60;12.60;;;;;22.80;59.42;100321.31;2071289;28;47269;-60
2022/09/03 03:42:14;;;;;;;;;13.20;12.80;;;;;22.78;59.67;100323.28;2097860;28;47609;-58
2022/09/03 03:43:15;;;;;;;;;11.00;11.00;;;;;22.78;59.68;100323.28;2100821;28;48026;-61
2022/09/03 03:44:16;;;;;;;;;12.50;11.50;;;;;22.78;59.74;100319.72;2101830;28;47815;-59
2022/09/03 03:45:17;;;;;;;;;13.40;13.00;;;;;22.78;59.97;100319.72;2104573;28;48791;-59
2022/09/03 03:46:17;;;;;;;;;15.75;15.75;;;;;22.77;59.72;100326.97;2105421;28;47358;-60
2022/09/03 03:47:17;;;;;;;;;14.75;13.00;;;;;22.75;60.06;100317.25;2099683;28;47119;-60
2022/09/03 03:48:18;;;;;;;;;10.75;9.75;;;;;22.73;60.49;100320.03;2098722;28;47516;-60
2022/09/03 03:49:18;;;;;;;;;15.00;13.25;;;;;22.73;60.05;100313.78;2103927;28;47438;-59
2022/09/03 03:50:19;;;;;;;;;15.25;14.00;;;;;22.72;59.92;100317.47;2101185;28;47680;-60
2022/09/03 03:51:19;;;;;;;;;13.75;13.00;;;;;22.71;60.04;100318.44;2103813;28;45643;-59
2022/09/03 03:52:20;;;;;;;;;14.00;14.00;;;;;22.66;60.25;100318.81;2104036;28;47578;-60
2022/09/03 03:53:20;;;;;;;;;13.00;12.00;;;;;22.67;60.06;100316.97;2104130;28;47135;-61
2022/09/03 03:54:21;;;;;;;;;13.25;12.50;;;;;22.66;60.21;100324.22;2096970;28;47245;-59
2022/09/03 03:55:21;;;;;;;;;12.25;12.25;;;;;22.65;60.68;100311.69;2103045;28;47131;-60
2022/09/03 03:56:23;;;;;;;;;13.00;13.00;;;;;22.65;60.21;100318.94;2104176;28;48045;-60
2022/09/03 03:57:24;;;;;;;;;10.00;9.60;;;;;22.64;60.20;100315.38;2090956;28;47998;-60
2022/09/03 03:58:25;;;;;;;;;11.00;11.00;;;;;22.65;59.67;100317.09;2089408;28;47459;-61
2022/09/03 03:59:25;;;;;;;;;14.40;13.60;;;;;22.65;60.80;100319.81;2084797;28;47473;-60
2022/09/03 04:00:26;;;;;;;;;14.00;14.00;;;;;22.64;60.50;100314.53;2094097;28;46807;-61
2022/09/03 04:01:27;;;;;;;;;13.50;13.50;;;;;22.63;60.21;100315.50;2112650;27;47661;-60
2022/09/03 04:02:27;;;;;;;;;11.60;11.60;;;;;22.60;60.41;100316.59;2103861;28;47604;-60
2022/09/03 04:03:28;;;;;;;;;13.50;10.75;;;;;22.60;60.61;100314.75;2102381;28;47350;-60
2022/09/03 04:04:28;;;;;;;;;11.25;11.25;;;;;22.61;60.66;100316.50;2104071;28;47946;-62
2022/09/03 04:05:29;;;;;;;;;12.50;11.25;;;;;22.60;60.27;100316.59;2099518;27;48545;-58
2022/09/03 04:06:29;;;;;;;;;16.00;14.00;;;;;22.60;60.35;100317.44;2089289;28;47472;-58
2022/09/03 04:07:30;;;;;;;;;11.75;11.50;;;;;22.60;60.34;100313.88;2086857;28;47407;-60
2022/09/03 04:08:35;;;;;;;;;7.00;7.00;;;;;22.60;60.39;100311.19;2090979;28;47735;-60
2022/09/03 04:09:36;;;;;;;;;12.20;12.00;;;;;22.59;60.98;100314.88;2105298;28;47445;-60
2022/09/03 04:10:36;;;;;;;;;10.40;10.40;;;;;22.58;60.64;100319.41;2104475;28;46738;-60
2022/09/03 04:11:37;;;;;;;;;9.75;9.75;;;;;22.58;60.52;100310.44;2103518;27;48184;-59
2022/09/03 04:12:38;;;;;;;;;14.80;14.20;;;;;22.58;60.40;100318.56;2091742;28;47424;-58
2022/09/03 04:13:41;;;;;;;;;12.00;12.00;;;;;22.56;60.79;100317.81;2089446;28;47254;-58
2022/09/03 04:14:41;;;;;;;;;14.80;13.00;;;;;22.56;60.63;100315.97;2101962;28;48067;-60
2022/09/03 04:15:42;;;;;;;;;14.50;13.25;;;;;22.57;60.72;100314.97;2096801;28;47712;-60
2022/09/03 04:16:45;;;;;;;;;12.50;12.50;;;;;22.57;60.42;100314.97;2094214;28;47475;-60
2022/09/03 04:17:46;;;;;;;;;11.00;11.00;;;;;22.57;60.84;100312.28;2096377;28;45790;-60
2022/09/03 04:18:48;;;;;;;;;12.00;12.00;;;;;22.58;60.73;100322.13;2085651;28;47485;-61
2022/09/03 04:19:48;;;;;;;;;12.20;11.60;;;;;22.58;61.02;100313.13;2085579;28;47857;-61
2022/09/03 04:20:49;;;;;;;;;13.25;13.25;;;;;22.58;60.59;100322.13;2104005;28;47923;-60
2022/09/03 04:21:49;;;;;;;;;12.25;12.25;;;;;22.55;60.79;100316.94;2101094;28;47775;-61
2022/09/03 04:22:49;;;;;;;;;12.50;11.75;;;;;22.58;60.56;100315.84;2098027;28;47445;-61
2022/09/03 04:23:51;;;;;;;;;14.00;12.75;;;;;22.58;60.43;100329.38;2105498;28;47603;-61
2022/09/03 04:24:52;;;;;;;;;13.00;13.00;;;;;22.57;60.71;100320.41;2104035;28;47294;-59
2022/09/03 04:25:52;;;;;;;;;11.00;11.00;;;;;22.57;60.82;100314.13;2098973;27;47672;-60
2022/09/03 04:26:53;;;;;;;;;13.50;13.50;;;;;22.56;60.81;100321.38;2104652;28;47685;-60
2022/09/03 04:27:54;;;;;;;;;12.40;12.40;;;;;22.56;60.87;100318.66;2099525;28;47693;-60
2022/09/03 04:28:54;;;;;;;;;11.00;11.00;;;;;22.57;60.97;100328.50;2104294;28;47132;-60
2022/09/03 04:29:54;;;;;;;;;12.00;12.00;;;;;22.58;60.84;100321.25;2105072;28;47585;-60
2022/09/03 04:31:02;;;;;;;;;13.00;11.25;;;;;22.57;60.78;100323.09;2095289;28;46092;-60
2022/09/03 04:33:23;;;;;;;;;12.40;12.40;;;;;22.56;60.90;100325.94;2089185;28;48135;-60
2022/09/03 04:34:24;;;;;;;;;13.00;12.00;;;;;22.56;60.95;100324.09;2095603;28;47836;-61
2022/09/03 04:35:32;;;;;;;;;11.25;11.25;;;;;22.57;60.78;100322.25;2095499;28;46459;-60
2022/09/03 04:36:33;;;;;;;;;11.40;11.20;;;;;22.56;61.24;100325.94;2084994;28;47628;-59
2022/09/03 04:37:34;;;;;;;;;11.60;9.80;;;;;22.57;60.85;100319.53;2086791;28;47910;-61
2022/09/03 04:38:37;;;;;;;;;13.00;13.00;;;;;22.57;60.86;100328.50;2095600;28;47623;-60
2022/09/03 04:39:37;;;;;;;;;12.40;11.60;;;;;22.57;61.14;100331.22;2095335;28;47681;-60
2022/09/03 04:40:38;;;;;;;;;10.00;10.00;;;;;22.58;60.74;100324.81;2093168;28;47814;-61
2022/09/03 04:41:38;;;;;;;;;12.00;12.00;;;;;22.59;61.06;100322.97;2094882;28;46188;-61
2022/09/03 04:42:38;;;;;;;;;13.25;13.25;;;;;22.58;60.50;100330.22;2087039;28;47483;-61
2022/09/03 04:43:43;;;;;;;;;14.00;12.75;;;;;22.58;60.99;100323.97;2086988;28;47593;-60
2022/09/03 04:44:43;;;;;;;;;10.00;10.00;;;;;22.57;60.65;100328.50;2093561;28;47223;-60
2022/09/03 04:45:44;;;;;;;;;10.75;10.50;;;;;22.58;60.81;100322.13;2094421;28;47059;-60
2022/09/03 04:46:49;;;;;;;;;13.25;13.25;;;;;22.56;60.94;100315.09;2095275;28;47759;-62
2022/09/03 04:48:00;;;;;;;;;12.00;12.00;;;;;22.57;60.80;100328.50;2086963;28;47175;-59
2022/09/03 04:49:01;;;;;;;;;13.20;13.20;;;;;22.57;60.96;100323.09;2086868;28;47722;-61
2022/09/03 04:50:04;;;;;;;;;13.00;12.00;;;;;22.57;60.85;100323.09;2097605;28;48350;-61
2022/09/03 04:51:10;;;;;;;;;10.60;10.60;;;;;22.58;60.65;100319.41;2095370;28;47612;-60
2022/09/03 04:52:10;;;;;;;;;15.00;15.00;;;;;22.58;60.67;100322.13;2095413;28;47885;-60
2022/09/03 04:53:11;;;;;;;;;10.75;10.75;;;;;22.58;60.51;100318.56;2092909;28;47889;-60
2022/09/03 04:54:11;;;;;;;;;11.50;11.50;;;;;22.58;60.73;100329.38;2095582;28;47766;-60
2022/09/03 04:55:12;;;;;;;;;11.00;11.00;;;;;22.56;60.79;100326.78;2095431;28;47101;-60
2022/09/03 04:56:13;;;;;;;;;14.75;13.75;;;;;22.56;60.67;100324.09;2085320;28;47527;-60
2022/09/03 04:57:14;;;;;;;;;11.40;10.00;;;;;22.57;60.83;100319.53;2069759;28;47700;-60
2022/09/03 04:58:14;;;;;;;;;12.75;11.75;;;;;22.57;60.98;100319.53;2078196;28;47716;-60
2022/09/03 04:59:14;;;;;;;;;10.00;9.25;;;;;22.56;60.80;100324.09;2091758;28;47604;-60
2022/09/03 05:00:17;;;;;;;;;12.25;12.25;;;;;22.57;60.63;100328.50;2090642;28;47500;-62
2022/09/03 05:01:20;;;;;;;;;10.00;10.00;;;;;22.59;61.15;100328.38;2082991;28;47733;-60
2022/09/03 05:02:20;;;;;;;;;9.00;9.00;;;;;22.60;60.97;100327.41;2088649;28;47718;-59
2022/09/03 05:03:21;;;;;;;;;11.00;11.00;;;;;22.60;60.84;100325.56;2103836;28;47654;-60
2022/09/03 05:04:21;;;;;;;;;15.25;15.25;;;;;22.61;60.91;100323.72;2102573;28;47644;-57
2022/09/03 05:05:21;;;;;;;;;9.50;9.50;;;;;22.61;60.64;100329.13;2101919;28;47995;-60
2022/09/03 05:06:24;;;;;;;;;9.75;9.75;;;;;22.61;60.48;100327.31;2104651;28;47603;-60
2022/09/03 05:07:28;;;;;;;;;12.20;12.20;;;;;22.61;60.84;100327.31;2104655;28;47261;-60
2022/09/03 05:08:28;;;;;;;;;12.00;11.40;;;;;22.63;60.97;100334.44;2103372;28;47924;-60